Impacts METAR Board
IDs:

KHDO - Hondo Muni, TX, US

Updated at: 1400 UTC 13 Dec 2019
Potential Impact None Slight Moderate High
Time 13/02Z 13/03Z 13/04Z 13/05Z 13/06Z 13/07Z 13/08Z 13/09Z 13/10Z 13/11Z 13/12Z 13/13Z 13/14Z
Temp50 42 40 40 39 38 39 36 35 35 36 36 37
Dewpt37 35 35 36 35 34 34 32 32 32 33 32 33
Altim30.11 30.10 30.10 30.09 30.08 30.06 30.04 30.04 30.02 30.00 30.00 30.00 30.01
VIS10 10 10 10 10 10 10 10 10 10 10 10 10
CIG-- -- -- -- -- -- -- -- -- -- -- -- --
CoverCLRCLRCLRCLRCLRCLRCLRCLRCLRCLRCLRCLRCLR
FltCatVFRVFRVFRVFRVFRVFRVFRVFRVFRVFRVFRVFRVFR
WX--------------------------
WDir030034010103400340340330330320310
WSpd0 3 4 5 4 4 0 6 4 5 4 6 3
WGst-- -- -- -- -- -- -- -- -- -- -- -- --
Raw hourly METARs
KHDO 130151Z AUTO 00000KT 10SM CLR 10/03 A3011 RMK AO2 SLP193 T01000028
KHDO 130251Z AUTO 30003KT 10SM CLR 06/02 A3010 RMK AO2 SLP192 T00560017 50001
KHDO 130351Z AUTO 34004KT 10SM CLR 04/02 A3010 RMK AO2 SLP189 T00440017
KHDO 130451Z AUTO 01005KT 10SM CLR 04/02 A3009 RMK AO2 SLP185 T00440022
KHDO 130551Z AUTO 01004KT 10SM CLR 04/02 A3008 RMK AO2 SLP183 T00390017 10139 20033 401781006 58006
KHDO 130651Z AUTO 34004KT 10SM CLR 03/01 A3006 RMK AO2 SLP176 T00330011
KHDO 130751Z AUTO 00000KT 10SM CLR 04/01 A3004 RMK AO2 SLP168 T00390011
KHDO 130851Z AUTO 34006KT 10SM CLR 02/00 A3004 RMK AO2 SLP166 T00220000 56016
KHDO 130951Z AUTO 34004KT 10SM CLR 02/00 A3002 RMK AO2 SLP160 T00170000
KHDO 131051Z AUTO 33005KT 10SM CLR 02/00 A3000 RMK AO2 SLP153 T00170000
KHDO 131151Z AUTO 33004KT 10SM CLR 02/01 A3000 RMK AO2 SLP154 T00220006 10039 20017 56013
KHDO 131251Z AUTO 32006KT 10SM CLR 02/00 A3000 RMK AO2 SLP156 T00220000
KHDO 131351Z AUTO 31003KT 10SM CLR 03/01 A3001 RMK AO2 SLP158 T00280006



Page loaded:  14:21 UTC  |   06:21 AM Pacific  |   07:21 AM Mountain  |   08:21 AM Central  |   09:21 AM Eastern

 

ADVISORIES

FORECASTS

FORECASTS

OBSERVATIONS

USER TOOLS

ABOUT US